x

Half Moon Bay - 24nm Ssw Of San Francisco, Ca (46012) Wave Buoy

6:50pm - Tue 30th Aug 2016 All times are PDT. -7 hours from GMT.

  • Sig Wave height 3.3ft
  • Swell Direction
  • Peak Period 15s
  • Average Period 5s
  • Wind
    16mph, 18mph gusts
  • Sea Temp 61°f
  • Air Temp 62°f
  • Sea Pressure 1013.9mb
  • Half Moon Bay - 24nm Ssw Of San Francisco, Ca
  • Half Moon Bay - 24nm Ssw Of San Francisco, Ca

More Historic Weather Station data

Upgrade to MSW Pro to gain access to the past 30 days of data for over 8000 Wavebouys and Weather Stations around the globe.

Join Pro

Comparision Forecast

View Surf forecast
   
Tue 08/30 6:50pm 3.5ft 15s 5s 16 18 mph 1013.9mb 61f 62f
5:50pm 3.5ft 16s 5s 16 18 mph 1014.3mb 61f 62f
4:50pm 4ft 16s 5s 16 18 mph 1014.7mb 62f 62f
3:50pm 4ft 15s 5s 13 16 mph 1014.9mb 61f 61f
2:50pm 4.5ft 16s 5s 16 20 mph 1015.2mb 61f 61f
1:50pm 3.5ft 6s 5s 20 22 mph 1015.8mb 61f 61f
12:50pm 4ft 6s 5s 16 18 mph 1016.6mb 61f 61f
11:50am 3.5ft 6s 5s 16 18 mph 1016.9mb 61f 61f
10:50am 4ft 16s 5s 13 18 mph 1017mb 61f 61f
9:50am 3.5ft 6s 5s 13 16 mph 1016.8mb 61f 61f
8:50am 4ft 15s 5s 16 18 mph 1016.7mb 61f 61f
7:50am 4.5ft 6s 5s 16 18 mph 1016.4mb 61f 61f
6:50am 4.5ft 6s 5s 16 20 mph 1016.1mb 61f 60f
5:50am 5ft 6s 5s 18 22 mph 1016.2mb 61f 60f
4:50am 5ft 6s 5s 18 22 mph 1016.3mb 61f 60f
3:50am 5ft 6s 5s 22 25 mph 1016.5mb 61f 60f
2:50am 5.5ft 6s 5s 22 27 mph 1016.6mb 61f 60f
1:50am 5ft 6s 5s 22 27 mph 1016.7mb 62f 60f
12:50am 5ft 6s 5s 20 25 mph 1016.7mb 62f 61f
Mon 08/29 11:50pm 4.5ft 5s 5s 22 29 mph 1017.1mb 62f 60f
10:50pm 4ft 5s 5s 20 25 mph 1016.9mb 62f 61f
9:50pm 3.5ft 13s 5s 18 22 mph 1016.8mb 62f 61f
8:50pm 3.5ft 16s 5s 18 20 mph 1016.6mb 62f 61f
7:50pm 3.5ft 16s 5s 18 22 mph 1016.5mb 62f 61f
6:50pm 3.5ft 15s 5s 18 22 mph 1016.8mb 62f 61f
5:50pm 3.5ft 17s 5s 18 22 mph 1017mb 62f 61f
4:50pm 3.5ft 16s 5s 18 20 mph 1017.2mb 62f 61f
3:50pm 3ft 14s 5s 16 18 mph 1017.7mb 62f 61f
2:50pm 3ft 16s  -  16 18 mph 1018.4mb 62f 60f
1:50pm 3ft 16s 5s 13 18 mph 1018.9mb 62f 60f
12:50pm 3.5ft 16s 6s 13 16 mph 1019.1mb 62f 60f
11:50am 3.5ft 16s 6s 13 16 mph 1019.3mb 61f 60f
10:50am 3.5ft 17s 6s 11
mph
1019.7mb 61f 60f
9:50am 3.5ft 13s 6s 13 16 mph 1019.6mb 61f 60f
8:50am 3.5ft 9s 5s 16 20 mph 1019.8mb 61f 59f
7:50am 3.5ft 12s 6s 13 20 mph 1019.4mb 61f 59f
6:50am 3.5ft 12s 6s 16 20 mph 1019mb 61f 58f
5:50am 3.5ft 17s 6s 16 20 mph 1018.6mb 61f 58f
4:50am 3ft 9s 6s 13 18 mph 1018.9mb 61f 58f
3:50am 3.5ft 13s 6s 11 13 mph 1018.9mb 61f 58f
2:50am 3.5ft 15s 6s 11 13 mph 1018.9mb 61f 58f
1:50am 3.5ft 13s 6s 13 16 mph 1018.7mb 61f 58f
12:50am 3.5ft 13s 6s 11 16 mph 1018.8mb 61f 58f
Sun 08/28 11:50pm 3.5ft 12s 7s 11 13 mph 1018.7mb 61f 59f
10:50pm 3ft 13s 7s 11 13 mph 1018.6mb 61f 59f
9:50pm 3.5ft 9s 8s 11 13 mph 1018.6mb 61f 60f
8:50pm 3.5ft 10s 8s 7 11 mph 1018mb 62f 59f
7:50pm 3.5ft 13s 8s 9 11 mph 1017.8mb 62f 60f
6:50pm 3.5ft 14s 9s 9 11 mph 1017.7mb 62f 60f
5:50pm 3.5ft 10s 8s 7 11 mph 1017.8mb 62f 61f
4:50pm 3.5ft 14s 8s 7 9 mph 1018.1mb 62f 62f
3:50pm 3.5ft 14s 8s 7 9 mph 1018.3mb 62f 62f
2:50pm 3.5ft 13s 8s 4 7 mph 1018.8mb 63f 62f
1:50pm 3.5ft 13s 8s 2 4 mph 1019.3mb 62f 61f
12:50pm 3.5ft 14s 8s 2 4 mph 1019.3mb 62f 60f
11:50am 3.5ft 13s 8s 4
mph
1019.1mb 61f 60f
10:50am 3.5ft 14s 8s 2
mph
1019.2mb 61f 60f
9:50am 3.5ft 14s 8s 2
mph
1018.9mb 61f 60f
8:50am 3.5ft 14s 8s  -  4 mph 1018.6mb 61f 60f
7:50am 3.5ft 9s 8s 2 4 mph 1018.2mb 61f 60f
6:50am 3.5ft 13s 9s 4 9 mph 1018mb 61f 60f
5:50am 3.5ft 14s 8s 4 7 mph 1017.6mb 61f 60f
4:50am 3.5ft 14s 9s 2 4 mph 1017.4mb 61f 60f
3:50am 3.5ft 14s 8s 7 9 mph 1017.4mb 61f 60f
2:50am 3.5ft 14s 8s 2 4 mph 1017.3mb 61f 61f
1:50am 4ft 14s 8s 4 9 mph 1017.4mb 61f 61f
12:50am 4ft 14s 8s 4
mph
1017.2mb 61f 61f
Sat 08/27 11:50pm 4ft 15s 8s 4 7 mph 1017.1mb 61f 61f
10:50pm 4ft 14s 8s 4 7 mph 1016.8mb 60f 61f
9:50pm 4ft 14s 8s 7 9 mph 1016.5mb 60f 61f
8:50pm 4ft 14s 8s 7 9 mph 1016mb 61f 61f
7:50pm 4ft 14s 8s 7
mph
1015.5mb 61f 62f
6:50pm 3.5ft 15s 8s 7 9 mph 1015.4mb 61f 62f
5:50pm 4.5ft 9s 8s 7 9 mph 1015.7mb 61f 62f
4:50pm 4ft 10s 8s 7
mph
1015.7mb 61f 61f
3:50pm 4.5ft 14s 8s 4 7 mph 1016mb 61f 61f
2:50pm 4ft 10s 8s 7
mph
1016.4mb 61f 61f
1:50pm 4ft 14s 8s 7
mph
1016.6mb 61f 61f
12:50pm 4ft 14s 7s 4 7 mph 1016.7mb 61f 61f
11:50am 4.5ft 14s 8s 9
mph
1016.7mb 61f 60f
10:50am 4.5ft 14s 8s 9 11 mph 1016.4mb 60f 60f
9:50am 4.5ft 14s 8s 9 11 mph 1016.1mb 60f 61f
8:50am 4.5ft 14s 8s 7 9 mph 1015.5mb 60f 61f
7:50am 4.5ft 13s 8s 7 9 mph 1015.2mb 60f 61f
6:50am 4ft 14s 8s 2 4 mph 1014.8mb 60f 61f
5:50am 4.5ft 11s 9s 4 9 mph 1014.4mb 60f 61f
4:50am 4ft 14s 8s 7 9 mph 1014.4mb 60f 61f
3:50am 4ft 14s 8s 7 11 mph 1014.4mb 60f 61f
2:50am 3.5ft 10s 8s 7 9 mph 1014.6mb 60f 61f